createdAt,value
2018-11-22T12:18:01.220Z,6.20
2018-11-22T12:20:28.726Z,6.20
2018-11-22T12:22:56.992Z,6.20
2018-11-22T12:25:25.453Z,6.30
2018-11-22T12:27:56.257Z,6.30
2018-11-22T12:30:28.283Z,6.30
2018-11-22T12:33:06.709Z,6.40
2018-11-22T12:35:42.130Z,6.40
2018-11-22T12:38:15.282Z,6.40
2018-11-22T12:40:43.023Z,6.40
2018-11-22T12:43:10.970Z,6.40
2018-11-22T12:45:39.083Z,6.40
2018-11-22T12:48:07.504Z,6.50
2018-11-22T12:50:40.301Z,6.60
2018-11-22T12:53:07.780Z,6.60
2018-11-22T12:55:37.284Z,6.60
2018-11-22T12:58:06.721Z,6.60
2018-11-22T13:00:34.301Z,6.60
2018-11-22T13:03:01.813Z,6.60
2018-11-22T13:05:29.344Z,6.60
2018-11-22T13:07:57.113Z,6.60
2018-11-22T13:10:25.794Z,6.60
2018-11-22T13:12:54.394Z,6.60
2018-11-22T13:15:25.038Z,6.60
2018-11-22T13:17:52.512Z,6.60
2018-11-22T13:20:20.992Z,6.70
2018-11-22T13:22:48.400Z,6.60
2018-11-22T13:25:18.905Z,6.60
2018-11-22T13:27:46.523Z,6.70
2018-11-22T13:30:16.525Z,6.70
2018-11-22T13:32:45.032Z,6.70
2018-11-22T13:35:14.338Z,6.80
2018-11-22T13:37:43.291Z,6.80
2018-11-22T13:40:13.022Z,6.90
2018-11-22T13:42:41.848Z,6.80
2018-11-22T13:45:12.624Z,6.90
2018-11-22T13:47:41.331Z,7.00
2018-11-22T13:50:15.612Z,7.20
2018-11-22T13:52:44.165Z,7.30
2018-11-22T13:55:15.929Z,7.30
2018-11-22T13:57:50.997Z,7.50
2018-11-22T14:00:26.458Z,7.80
2018-11-22T14:02:55.582Z,8.00
2018-11-22T14:05:23.279Z,8.20
2018-11-22T14:07:51.816Z,8.30
2018-11-22T14:10:19.926Z,8.40
2018-11-22T14:12:47.854Z,8.40
2018-11-22T14:15:17.024Z,8.50
2018-11-22T14:17:46.153Z,8.50
2018-11-22T14:20:20.780Z,8.60
2018-11-22T14:22:48.594Z,8.60
2018-11-22T14:25:16.740Z,8.60
2018-11-22T14:27:47.530Z,8.60
2018-11-22T14:30:18.801Z,8.50
2018-11-22T14:32:48.297Z,8.40
2018-11-22T14:35:20.179Z,8.00
2018-11-22T14:37:47.715Z,7.90
2018-11-22T14:40:16.556Z,7.90
2018-11-22T14:42:45.863Z,7.80
2018-11-22T14:45:14.261Z,7.60
2018-11-22T14:47:42.791Z,7.50
2018-11-22T14:52:22.400Z,7.40
2018-11-22T14:54:49.952Z,7.40
2018-11-22T14:57:17.493Z,7.10
2018-11-22T14:59:45.999Z,7.10
2018-11-22T15:02:15.105Z,6.90
2018-11-22T15:04:42.977Z,6.90
2018-11-22T15:07:12.650Z,7.00
2018-11-22T15:09:41.572Z,6.90
2018-11-22T15:12:10.353Z,6.90
2018-11-22T15:14:39.877Z,6.90
2018-11-22T15:17:09.001Z,6.80
2018-11-22T15:19:38.717Z,6.60
2018-11-22T15:22:06.269Z,6.50
2018-11-22T15:24:33.744Z,6.50
2018-11-22T15:27:01.529Z,6.30
2018-11-22T15:29:29.224Z,6.20
2018-11-22T15:31:56.891Z,6.20
2018-11-22T15:34:25.873Z,6.20
2018-11-22T15:36:54.129Z,6.10
2018-11-22T15:39:23.923Z,6.00
2018-11-22T15:41:53.484Z,6.00
2018-11-22T15:44:22.032Z,5.90
2018-11-22T15:46:50.978Z,5.90
2018-11-22T15:49:18.495Z,5.80
2018-11-22T15:51:46.279Z,5.80
2018-11-22T15:54:14.598Z,5.70
2018-11-22T15:56:45.546Z,5.70
2018-11-22T15:59:15.516Z,5.70
2018-11-22T16:01:43.071Z,5.60
2018-11-22T16:04:10.809Z,5.60
2018-11-22T16:06:38.522Z,5.60
2018-11-22T16:09:10.043Z,5.60
2018-11-22T16:11:37.658Z,5.60
2018-11-22T16:14:06.193Z,5.60
2018-11-22T16:16:36.929Z,5.70
2018-11-22T16:19:05.537Z,5.70
2018-11-22T16:21:36.334Z,5.70
2018-11-22T16:24:04.885Z,5.70
2018-11-22T16:26:33.369Z,5.50
2018-11-22T16:29:01.879Z,5.50
2018-11-22T16:31:30.578Z,5.40
2018-11-22T16:33:58.123Z,5.40
2018-11-22T16:36:25.688Z,5.40
2018-11-22T16:38:54.280Z,5.40
2018-11-22T16:41:21.728Z,5.30
2018-11-22T16:43:50.217Z,5.20
2018-11-22T16:46:17.805Z,5.00
2018-11-22T16:48:46.754Z,4.80
2018-11-22T16:51:16.196Z,4.80
2018-11-22T16:53:45.077Z,4.70
2018-11-22T16:56:12.646Z,4.60
2018-11-22T16:58:41.551Z,4.50
2018-11-22T17:01:13.468Z,4.50
2018-11-22T17:03:44.516Z,4.50
2018-11-22T17:06:16.980Z,4.50
2018-11-22T17:08:46.410Z,4.40
2018-11-22T17:11:15.320Z,4.40
2018-11-22T17:13:44.147Z,4.40
2018-11-22T17:16:11.735Z,4.50
2018-11-22T17:18:40.453Z,4.40
2018-11-22T17:21:08.233Z,4.40
2018-11-22T17:23:35.735Z,4.40
2018-11-22T17:26:03.402Z,4.40
2018-11-22T17:28:32.125Z,4.40
2018-11-22T17:31:01.188Z,4.40
2018-11-22T17:33:28.769Z,4.40
2018-11-22T17:35:56.339Z,4.40
2018-11-22T17:38:25.524Z,4.40
2018-11-22T17:40:53.627Z,4.40
2018-11-22T17:43:26.030Z,4.50
2018-11-22T17:45:58.397Z,4.50
2018-11-22T17:48:26.296Z,4.50
2018-11-22T17:50:53.850Z,4.50
2018-11-22T17:53:24.934Z,4.50
2018-11-22T17:55:53.522Z,4.50
2018-11-22T17:58:26.376Z,4.50
2018-11-22T18:00:54.827Z,4.50
2018-11-22T18:03:27.290Z,4.50
2018-11-22T18:05:54.970Z,4.50
2018-11-22T18:08:25.270Z,4.50
2018-11-22T18:10:54.292Z,4.50
2018-11-22T18:13:25.878Z,4.60
2018-11-22T18:15:58.048Z,4.50
2018-11-22T18:18:26.741Z,4.50
2018-11-22T18:20:56.940Z,4.50
2018-11-22T18:23:25.484Z,4.50
2018-11-22T18:25:53.116Z,4.50
2018-11-22T18:28:20.689Z,4.50
2018-11-22T18:30:49.270Z,4.40
2018-11-22T18:33:16.867Z,4.40
2018-11-22T18:35:45.286Z,4.40
2018-11-22T18:38:13.452Z,4.40
2018-11-22T18:40:45.290Z,4.40
2018-11-22T18:43:14.899Z,4.40
2018-11-22T18:45:48.139Z,4.40
2018-11-22T18:48:17.810Z,4.30
2018-11-22T18:50:46.951Z,4.30
2018-11-22T18:53:14.117Z,4.30
2018-11-22T18:55:45.519Z,4.20
2018-11-22T18:58:13.525Z,4.20
2018-11-22T19:00:43.433Z,4.20
2018-11-22T19:03:14.654Z,4.20
2018-11-22T19:05:44.588Z,4.20
2018-11-22T19:08:14.255Z,4.20
2018-11-22T19:10:44.484Z,4.30
2018-11-22T19:13:13.425Z,4.20
2018-11-22T19:15:47.310Z,4.10
2018-11-22T19:18:19.387Z,4.00
2018-11-22T19:20:50.030Z,4.00
2018-11-22T19:23:21.791Z,4.00
2018-11-22T19:25:54.515Z,4.00
2018-11-22T19:28:31.870Z,3.90
2018-11-22T19:30:59.827Z,3.80
2018-11-22T19:33:28.942Z,3.80
2018-11-22T19:35:58.795Z,3.80
2018-11-22T19:38:27.912Z,3.80
2018-11-22T19:40:56.970Z,3.80
2018-11-22T19:43:26.456Z,3.80
2018-11-22T19:45:56.330Z,3.80
2018-11-22T19:48:24.836Z,3.70
2018-11-22T19:50:53.591Z,3.70
2018-11-22T19:53:22.387Z,3.70
2018-11-22T19:55:55.591Z,3.70
2018-11-22T19:58:31.716Z,3.70
2018-11-22T20:01:07.602Z,3.70
2018-11-22T20:03:31.043Z,3.70
2018-11-22T20:05:59.922Z,3.70
2018-11-22T20:08:28.085Z,3.70
2018-11-22T20:10:55.958Z,3.60
2018-11-22T20:13:24.002Z,3.60
2018-11-22T20:15:52.858Z,3.60
2018-11-22T20:18:22.394Z,3.70
2018-11-22T20:20:50.406Z,3.70
2018-11-22T20:23:21.889Z,3.60
2018-11-22T20:25:50.119Z,3.50
2018-11-22T20:28:19.856Z,3.60
2018-11-22T20:30:48.211Z,3.60
2018-11-22T20:33:15.886Z,3.60
2018-11-22T20:35:44.551Z,3.50
2018-11-22T20:38:12.376Z,3.50
2018-11-22T20:40:40.990Z,3.50
2018-11-22T20:43:09.437Z,3.50
2018-11-22T20:45:41.058Z,3.40
2018-11-22T20:48:09.837Z,3.40
2018-11-22T20:50:37.814Z,3.40
2018-11-22T20:53:09.885Z,3.40
2018-11-22T20:55:39.344Z,3.40
2018-11-22T20:58:07.147Z,3.40
2018-11-22T21:00:37.481Z,3.50
2018-11-22T21:03:06.647Z,3.40
2018-11-22T21:05:35.261Z,3.40
2018-11-22T21:08:02.888Z,3.40
2018-11-22T21:10:31.981Z,3.40
2018-11-22T21:13:00.731Z,3.40
2018-11-22T21:15:31.608Z,3.30
2018-11-22T21:18:01.209Z,3.30
2018-11-22T21:20:32.130Z,3.20
2018-11-22T21:23:00.887Z,3.10
2018-11-22T21:25:29.489Z,3.10
2018-11-22T21:27:57.383Z,3.10
2018-11-22T21:30:26.892Z,3.00
2018-11-22T21:32:55.287Z,2.90
2018-11-22T21:35:32.989Z,2.80
2018-11-22T21:38:08.583Z,2.80
2018-11-22T21:40:36.947Z,2.80
2018-11-22T21:43:05.137Z,2.80
2018-11-22T21:45:34.738Z,2.90
2018-11-22T21:48:17.159Z,2.90
2018-11-22T21:50:45.793Z,2.90
2018-11-22T21:53:17.019Z,2.90
2018-11-22T21:55:44.538Z,2.80
2018-11-22T21:58:14.709Z,2.70
2018-11-22T22:00:42.282Z,2.70
2018-11-22T22:03:14.473Z,2.70
2018-11-22T22:05:44.637Z,2.70
2018-11-22T22:08:13.014Z,2.70
2018-11-22T22:10:41.350Z,2.80
2018-11-22T22:13:10.030Z,2.90
2018-11-22T22:15:39.168Z,2.80
2018-11-22T22:18:08.253Z,2.70
2018-11-22T22:20:38.316Z,2.70
2018-11-22T22:23:05.858Z,2.70
2018-11-22T22:25:33.940Z,2.80
2018-11-22T22:28:01.876Z,2.80
2018-11-22T22:30:32.207Z,2.80
2018-11-22T22:33:03.811Z,2.80
2018-11-22T22:35:31.253Z,2.90
2018-11-22T22:38:00.975Z,2.80
2018-11-22T22:40:30.223Z,2.80
2018-11-22T22:42:58.353Z,2.90
2018-11-22T22:45:27.013Z,2.80
2018-11-22T22:47:54.596Z,2.80
2018-11-22T22:50:24.443Z,2.80
2018-11-22T22:52:55.280Z,2.70
2018-11-22T22:55:22.880Z,2.60
2018-11-22T22:57:51.597Z,2.70
2018-11-22T23:00:27.234Z,2.60
2018-11-22T23:02:57.352Z,2.60
2018-11-22T23:05:25.564Z,2.60
2018-11-22T23:07:54.371Z,2.60
2018-11-22T23:10:22.479Z,2.50
2018-11-22T23:12:53.600Z,2.60
2018-11-22T23:15:31.305Z,2.60
2018-11-22T23:17:59.252Z,2.60
2018-11-22T23:20:27.937Z,2.60
2018-11-22T23:22:56.269Z,2.70
2018-11-22T23:25:24.744Z,2.70
2018-11-22T23:27:52.320Z,2.90
2018-11-22T23:30:23.650Z,2.90
2018-11-22T23:32:52.997Z,3.00
2018-11-22T23:35:22.674Z,2.90
2018-11-22T23:37:54.379Z,2.90
2018-11-22T23:40:24.348Z,3.00
2018-11-22T23:42:51.746Z,3.00
2018-11-22T23:45:22.448Z,3.00
2018-11-22T23:47:50.611Z,2.90
2018-11-22T23:50:20.413Z,2.90
2018-11-22T23:52:49.146Z,2.80
2018-11-22T23:55:16.569Z,2.90
2018-11-22T23:57:44.946Z,2.70
